sensor_id;sensor_type;location;lat;lon;timestamp;pressure;altitude;pressure_sealevel;temperature;humidity
56340;BME280;42243;42.644;23.366;2023-05-22T00:01:00;94143.63;;;14.70;67.63
56340;BME280;42243;42.644;23.366;2023-05-22T00:03:27;94311.03;;;15.54;69.12
56340;BME280;42243;42.644;23.366;2023-05-22T00:05:53;94233.56;;;14.94;68.88
56340;BME280;42243;42.644;23.366;2023-05-22T00:08:26;94298.13;;;14.95;70.01
56340;BME280;42243;42.644;23.366;2023-05-22T00:10:52;94157.88;;;14.22;70.48
56340;BME280;42243;42.644;23.366;2023-05-22T00:13:17;94236.22;;;14.82;70.06
56340;BME280;42243;42.644;23.366;2023-05-22T00:15:43;94173.50;;;14.69;69.13
56340;BME280;42243;42.644;23.366;2023-05-22T00:18:08;94169.09;;;14.87;68.84
56340;BME280;42243;42.644;23.366;2023-05-22T00:20:33;94308.56;;;15.76;68.33
56340;BME280;42243;42.644;23.366;2023-05-22T00:23:03;94224.72;;;15.29;68.62
56340;BME280;42243;42.644;23.366;2023-05-22T00:25:29;94297.88;;;15.83;68.88
56340;BME280;42243;42.644;23.366;2023-05-22T00:27:54;94164.38;;;15.00;68.73
56340;BME280;42243;42.644;23.366;2023-05-22T00:30:20;94305.84;;;15.88;69.07
56340;BME280;42243;42.644;23.366;2023-05-22T00:32:45;94299.50;;;15.84;69.38
56340;BME280;42243;42.644;23.366;2023-05-22T00:35:10;94299.94;;;15.81;69.50
56340;BME280;42243;42.644;23.366;2023-05-22T00:37:36;94297.09;;;15.82;69.12
56340;BME280;42243;42.644;23.366;2023-05-22T00:40:01;94304.91;;;15.94;68.06
56340;BME280;42243;42.644;23.366;2023-05-22T00:42:28;94154.75;;;14.77;67.64
56340;BME280;42243;42.644;23.366;2023-05-22T00:44:53;94278.88;;;15.47;68.37
56340;BME280;42243;42.644;23.366;2023-05-22T00:47:18;94271.84;;;15.36;68.31
56340;BME280;42243;42.644;23.366;2023-05-22T00:49:45;94199.31;;;14.89;68.29
56340;BME280;42243;42.644;23.366;2023-05-22T00:52:11;94192.25;;;14.90;68.36
56340;BME280;42243;42.644;23.366;2023-05-22T00:54:38;94296.31;;;15.53;68.56
56340;BME280;42243;42.644;23.366;2023-05-22T00:57:04;94218.84;;;15.10;68.13
56340;BME280;42243;42.644;23.366;2023-05-22T00:59:30;94244.16;;;15.16;68.65
56340;BME280;42243;42.644;23.366;2023-05-22T01:01:56;94194.84;;;14.90;68.67
56340;BME280;42243;42.644;23.366;2023-05-22T01:04:22;94295.44;;;15.65;68.63
56340;BME280;42243;42.644;23.366;2023-05-22T01:06:47;94301.50;;;15.65;68.91
56340;BME280;42243;42.644;23.366;2023-05-22T01:09:13;94211.94;;;14.63;70.17
56340;BME280;42243;42.644;23.366;2023-05-22T01:11:50;94305.22;;;15.23;70.51
56340;BME280;42243;42.644;23.366;2023-05-22T01:19:54;94225.72;;;14.82;70.54
56340;BME280;42243;42.644;23.366;2023-05-22T01:26:08;94268.19;;;15.37;70.30
56340;BME280;42243;42.644;23.366;2023-05-22T01:31:31;94205.34;;;14.90;69.76
56340;BME280;42243;42.644;23.366;2023-05-22T01:34:02;94262.78;;;15.43;69.44
56340;BME280;42243;42.644;23.366;2023-05-22T01:36:30;94300.00;;;15.40;70.34
56340;BME280;42243;42.644;23.366;2023-05-22T01:38:59;94182.16;;;14.70;70.46
56340;BME280;42243;42.644;23.366;2023-05-22T01:41:27;94220.50;;;14.99;70.26
56340;BME280;42243;42.644;23.366;2023-05-22T01:43:53;94226.69;;;14.93;70.18
56340;BME280;42243;42.644;23.366;2023-05-22T01:46:18;94256.69;;;15.26;70.35
56340;BME280;42243;42.644;23.366;2023-05-22T01:48:44;94290.00;;;15.54;69.77
56340;BME280;42243;42.644;23.366;2023-05-22T01:51:18;94293.34;;;15.50;69.90
56340;BME280;42243;42.644;23.366;2023-05-22T01:53:57;94222.16;;;14.89;69.70
56340;BME280;42243;42.644;23.366;2023-05-22T02:02:05;94194.97;;;14.66;70.65
56340;BME280;42243;42.644;23.366;2023-05-22T02:04:37;94265.09;;;15.11;70.88
56340;BME280;42243;42.644;23.366;2023-05-22T02:07:03;94254.56;;;14.82;71.55
56340;BME280;42243;42.644;23.366;2023-05-22T02:09:29;94168.81;;;14.19;72.08
56340;BME280;42243;42.644;23.366;2023-05-22T02:11:59;94288.03;;;15.04;71.90
56340;BME280;42243;42.644;23.366;2023-05-22T02:14:25;94285.91;;;15.01;71.71
56340;BME280;42243;42.644;23.366;2023-05-22T02:16:52;94193.16;;;14.31;71.95
56340;BME280;42243;42.644;23.366;2023-05-22T02:19:17;94197.94;;;14.46;71.53
56340;BME280;42243;42.644;23.366;2023-05-22T02:21:42;94290.59;;;15.28;71.00
56340;BME280;42243;42.644;23.366;2023-05-22T02:24:08;94259.47;;;14.91;71.59
56340;BME280;42243;42.644;23.366;2023-05-22T02:26:34;94208.88;;;14.55;71.49
56340;BME280;42243;42.644;23.366;2023-05-22T02:29:01;94294.34;;;15.03;71.98
56340;BME280;42243;42.644;23.366;2023-05-22T02:31:26;94294.59;;;14.90;72.24
56340;BME280;42243;42.644;23.366;2023-05-22T02:33:52;94200.38;;;14.24;72.01
56340;BME280;42243;42.644;23.366;2023-05-22T02:36:17;94294.28;;;14.74;72.41
56340;BME280;42243;42.644;23.366;2023-05-22T02:38:43;94293.59;;;14.79;72.10
56340;BME280;42243;42.644;23.366;2023-05-22T02:41:08;94284.16;;;14.66;72.64
56340;BME280;42243;42.644;23.366;2023-05-22T02:43:33;94205.75;;;14.06;72.77
56340;BME280;42243;42.644;23.366;2023-05-22T02:45:59;94215.19;;;14.30;71.88
56340;BME280;42243;42.644;23.366;2023-05-22T02:48:24;94196.06;;;14.06;72.43
56340;BME280;42243;42.644;23.366;2023-05-22T02:50:49;94291.34;;;14.71;72.22
56340;BME280;42243;42.644;23.366;2023-05-22T02:53:15;94209.50;;;14.21;72.39
56340;BME280;42243;42.644;23.366;2023-05-22T02:55:41;94197.56;;;14.14;72.91
56340;BME280;42243;42.644;23.366;2023-05-22T02:58:07;94277.38;;;14.82;72.01
56340;BME280;42243;42.644;23.366;2023-05-22T03:00:39;94186.16;;;14.20;71.76
56340;BME280;42243;42.644;23.366;2023-05-22T03:03:05;94250.97;;;14.60;71.83
56340;BME280;42243;42.644;23.366;2023-05-22T03:05:31;94271.13;;;14.71;72.19
56340;BME280;42243;42.644;23.366;2023-05-22T03:07:57;94276.03;;;14.68;72.22
56340;BME280;42243;42.644;23.366;2023-05-22T03:10:23;94275.25;;;14.43;73.36
56340;BME280;42243;42.644;23.366;2023-05-22T03:12:49;94277.06;;;14.43;73.54
56340;BME280;42243;42.644;23.366;2023-05-22T03:15:16;94227.16;;;14.02;73.72
56340;BME280;42243;42.644;23.366;2023-05-22T03:17:42;94225.25;;;13.98;73.98
56340;BME280;42243;42.644;23.366;2023-05-22T03:20:08;94183.78;;;13.71;73.49
56340;BME280;42243;42.644;23.366;2023-05-22T03:22:33;94282.78;;;14.28;72.90
56340;BME280;42243;42.644;23.366;2023-05-22T03:24:58;94250.88;;;14.08;72.69
56340;BME280;42243;42.644;23.366;2023-05-22T03:27:24;94273.22;;;14.22;72.64
56340;BME280;42243;42.644;23.366;2023-05-22T03:29:49;94271.84;;;14.31;72.35
56340;BME280;42243;42.644;23.366;2023-05-22T03:32:15;94170.91;;;13.70;72.44
56340;BME280;42243;42.644;23.366;2023-05-22T03:34:41;94273.66;;;14.42;72.16
56340;BME280;42243;42.644;23.366;2023-05-22T03:37:07;94287.81;;;14.65;71.93
56340;BME280;42243;42.644;23.366;2023-05-22T03:39:33;94280.50;;;14.67;72.13
56340;BME280;42243;42.644;23.366;2023-05-22T03:41:59;94290.75;;;14.80;71.91
56340;BME280;42243;42.644;23.366;2023-05-22T03:44:25;94223.16;;;14.35;71.91
56340;BME280;42243;42.644;23.366;2023-05-22T03:46:50;94184.22;;;14.15;71.32
56340;BME280;42243;42.644;23.366;2023-05-22T03:49:16;94303.28;;;14.90;71.24
56340;BME280;42243;42.644;23.366;2023-05-22T03:51:41;94253.81;;;14.70;71.06
56340;BME280;42243;42.644;23.366;2023-05-22T03:54:07;94285.56;;;14.97;71.31
56340;BME280;42243;42.644;23.366;2023-05-22T03:56:32;94258.69;;;14.78;71.04
56340;BME280;42243;42.644;23.366;2023-05-22T03:58:58;94209.97;;;14.07;72.31
56340;BME280;42243;42.644;23.366;2023-05-22T04:01:23;94201.91;;;13.73;74.27
56340;BME280;42243;42.644;23.366;2023-05-22T04:03:49;94297.50;;;14.17;75.80
56340;BME280;42243;42.644;23.366;2023-05-22T04:06:14;94299.69;;;14.56;74.35
56340;BME280;42243;42.644;23.366;2023-05-22T04:08:39;94188.22;;;13.94;73.85
56340;BME280;42243;42.644;23.366;2023-05-22T04:11:05;94295.03;;;14.98;73.11
56340;BME280;42243;42.644;23.366;2023-05-22T04:13:30;94295.66;;;15.17;72.21
56340;BME280;42243;42.644;23.366;2023-05-22T04:15:57;94249.75;;;14.91;71.75
56340;BME280;42243;42.644;23.366;2023-05-22T04:18:22;94300.63;;;15.31;72.02
56340;BME280;42243;42.644;23.366;2023-05-22T04:20:47;94245.97;;;14.99;71.58
56340;BME280;42243;42.644;23.366;2023-05-22T04:23:15;94187.47;;;14.58;71.94
56340;BME280;42243;42.644;23.366;2023-05-22T04:25:41;94260.63;;;15.12;71.95
56340;BME280;42243;42.644;23.366;2023-05-22T04:28:07;94304.84;;;15.60;71.50
56340;BME280;42243;42.644;23.366;2023-05-22T04:30:33;94225.19;;;15.26;71.17
56340;BME280;42243;42.644;23.366;2023-05-22T04:33:01;94177.78;;;15.04;70.66
56340;BME280;42243;42.644;23.366;2023-05-22T04:35:27;94299.66;;;15.94;70.37
56340;BME280;42243;42.644;23.366;2023-05-22T04:37:54;94297.66;;;16.01;70.25
56340;BME280;42243;42.644;23.366;2023-05-22T04:40:20;94251.06;;;15.80;69.89
56340;BME280;42243;42.644;23.366;2023-05-22T04:42:45;94311.97;;;16.28;69.05
56340;BME280;42243;42.644;23.366;2023-05-22T04:45:10;94208.78;;;15.81;68.02
56340;BME280;42243;42.644;23.366;2023-05-22T04:47:38;94289.41;;;16.49;67.79
56340;BME280;42243;42.644;23.366;2023-05-22T04:50:06;94309.78;;;16.75;67.49
56340;BME280;42243;42.644;23.366;2023-05-22T04:52:32;94284.41;;;16.69;66.94
56340;BME280;42243;42.644;23.366;2023-05-22T04:54:57;94078.69;;;15.67;66.02
56340;BME280;42243;42.644;23.366;2023-05-22T04:57:22;94219.66;;;16.68;65.87
56340;BME280;42243;42.644;23.366;2023-05-22T04:59:49;94280.06;;;17.46;65.11
56340;BME280;42243;42.644;23.366;2023-05-22T05:02:16;94263.19;;;17.47;64.78
56340;BME280;42243;42.644;23.366;2023-05-22T05:04:41;94253.56;;;17.58;64.40
56340;BME280;42243;42.644;23.366;2023-05-22T05:07:07;94271.91;;;17.80;64.01
56340;BME280;42243;42.644;23.366;2023-05-22T05:09:33;94245.38;;;17.59;64.12
56340;BME280;42243;42.644;23.366;2023-05-22T05:11:59;94258.00;;;17.57;64.35
56340;BME280;42243;42.644;23.366;2023-05-22T05:14:24;94297.31;;;17.86;64.37
56340;BME280;42243;42.644;23.366;2023-05-22T05:16:50;94318.59;;;18.07;64.53
56340;BME280;42243;42.644;23.366;2023-05-22T05:19:19;94318.88;;;18.10;64.62
56340;BME280;42243;42.644;23.366;2023-05-22T05:21:47;94226.84;;;17.49;64.67
56340;BME280;42243;42.644;23.366;2023-05-22T05:24:16;94288.13;;;17.94;64.18
56340;BME280;42243;42.644;23.366;2023-05-22T05:26:42;94315.28;;;18.21;63.95
56340;BME280;42243;42.644;23.366;2023-05-22T05:29:07;94223.34;;;17.71;63.21
56340;BME280;42243;42.644;23.366;2023-05-22T05:31:33;94288.09;;;18.21;62.87
56340;BME280;42243;42.644;23.366;2023-05-22T05:33:58;94209.06;;;17.67;61.87
56340;BME280;42243;42.644;23.366;2023-05-22T05:36:24;94187.44;;;17.65;61.39
56340;BME280;42243;42.644;23.366;2023-05-22T05:38:49;94312.06;;;18.57;60.91
56340;BME280;42243;42.644;23.366;2023-05-22T05:41:15;94246.97;;;18.25;60.53
56340;BME280;42243;42.644;23.366;2023-05-22T05:43:40;94292.16;;;18.81;59.82
56340;BME280;42243;42.644;23.366;2023-05-22T05:46:06;94289.84;;;20.40;55.47
56340;BME280;42243;42.644;23.366;2023-05-22T05:48:31;94225.66;;;24.05;45.24
56340;BME280;42243;42.644;23.366;2023-05-22T05:50:57;94288.88;;;28.24;37.33
56340;BME280;42243;42.644;23.366;2023-05-22T05:53:22;94301.75;;;31.64;31.55
56340;BME280;42243;42.644;23.366;2023-05-22T05:55:47;94283.78;;;33.60;27.55
56340;BME280;42243;42.644;23.366;2023-05-22T05:58:13;94301.34;;;35.29;25.26
56340;BME280;42243;42.644;23.366;2023-05-22T06:00:38;94302.91;;;37.16;22.25
56340;BME280;42243;42.644;23.366;2023-05-22T06:03:06;94293.78;;;31.18;28.02
56340;BME280;42243;42.644;23.366;2023-05-22T06:05:31;94312.53;;;33.84;24.70
56340;BME280;42243;42.644;23.366;2023-05-22T06:07:57;94299.66;;;37.03;20.62
56340;BME280;42243;42.644;23.366;2023-05-22T06:10:23;94288.78;;;37.47;20.55
56340;BME280;42243;42.644;23.366;2023-05-22T06:12:48;94277.19;;;37.09;19.60
56340;BME280;42243;42.644;23.366;2023-05-22T06:15:14;94297.44;;;37.12;19.56
56340;BME280;42243;42.644;23.366;2023-05-22T06:17:39;94277.38;;;39.17;17.56
56340;BME280;42243;42.644;23.366;2023-05-22T06:20:05;94306.06;;;41.56;16.46
56340;BME280;42243;42.644;23.366;2023-05-22T06:22:31;94258.19;;;40.77;16.39
56340;BME280;42243;42.644;23.366;2023-05-22T06:24:57;94270.16;;;40.28;17.20
56340;BME280;42243;42.644;23.366;2023-05-22T06:27:23;94307.72;;;39.80;17.64
56340;BME280;42243;42.644;23.366;2023-05-22T06:29:52;94248.50;;;39.56;17.16
56340;BME280;42243;42.644;23.366;2023-05-22T06:32:17;94291.25;;;40.23;17.05
56340;BME280;42243;42.644;23.366;2023-05-22T06:34:45;94284.00;;;40.65;16.74
56340;BME280;42243;42.644;23.366;2023-05-22T06:37:11;94296.03;;;41.38;15.85
56340;BME280;42243;42.644;23.366;2023-05-22T06:39:37;94232.16;;;41.94;15.04
56340;BME280;42243;42.644;23.366;2023-05-22T06:42:02;94290.34;;;42.36;14.91
56340;BME280;42243;42.644;23.366;2023-05-22T06:44:28;94292.56;;;43.06;14.91
56340;BME280;42243;42.644;23.366;2023-05-22T06:46:53;94291.63;;;40.99;16.03
56340;BME280;42243;42.644;23.366;2023-05-22T06:49:19;94250.84;;;39.61;16.88
56340;BME280;42243;42.644;23.366;2023-05-22T06:51:44;94298.25;;;38.45;18.21
56340;BME280;42243;42.644;23.366;2023-05-22T06:54:10;94246.00;;;31.03;24.95
56340;BME280;42243;42.644;23.366;2023-05-22T06:56:40;94287.41;;;38.56;18.78
56340;BME280;42243;42.644;23.366;2023-05-22T06:59:06;94285.13;;;39.62;17.01
56340;BME280;42243;42.644;23.366;2023-05-22T07:01:32;94273.09;;;36.14;19.68
56340;BME280;42243;42.644;23.366;2023-05-22T07:03:58;94307.28;;;33.40;22.67
56340;BME280;42243;42.644;23.366;2023-05-22T07:06:32;94313.47;;;25.58;32.51
56340;BME280;42243;42.644;23.366;2023-05-22T07:08:57;94317.09;;;28.30;28.09
56340;BME280;42243;42.644;23.366;2023-05-22T07:11:23;94273.47;;;28.77;28.16
56340;BME280;42243;42.644;23.366;2023-05-22T07:13:48;94321.22;;;26.42;31.88
56340;BME280;42243;42.644;23.366;2023-05-22T07:16:14;94219.56;;;24.04;34.73
56340;BME280;42243;42.644;23.366;2023-05-22T07:18:39;94309.53;;;27.23;30.20
56340;BME280;42243;42.644;23.366;2023-05-22T07:21:06;94268.44;;;25.02;33.49
56340;BME280;42243;42.644;23.366;2023-05-22T07:23:31;94286.78;;;25.58;33.44
56340;BME280;42243;42.644;23.366;2023-05-22T07:25:56;94309.09;;;23.81;36.44
56340;BME280;42243;42.644;23.366;2023-05-22T07:28:22;94197.06;;;24.71;34.14
56340;BME280;42243;42.644;23.366;2023-05-22T07:30:47;94283.97;;;25.91;33.28
56340;BME280;42243;42.644;23.366;2023-05-22T07:33:13;94250.97;;;24.68;34.77
56340;BME280;42243;42.644;23.366;2023-05-22T07:35:38;94282.84;;;24.26;36.74
56340;BME280;42243;42.644;23.366;2023-05-22T07:38:03;94296.38;;;22.87;40.02
56340;BME280;42243;42.644;23.366;2023-05-22T07:40:29;94202.34;;;23.07;39.60
56340;BME280;42243;42.644;23.366;2023-05-22T07:42:54;94265.91;;;22.55;41.47
56340;BME280;42243;42.644;23.366;2023-05-22T07:45:20;94289.59;;;24.37;37.18
56340;BME280;42243;42.644;23.366;2023-05-22T07:47:45;94243.56;;;24.78;36.73
56340;BME280;42243;42.644;23.366;2023-05-22T07:50:11;94207.50;;;24.07;37.17
56340;BME280;42243;42.644;23.366;2023-05-22T07:52:36;94309.28;;;22.11;41.15
56340;BME280;42243;42.644;23.366;2023-05-22T07:55:02;94291.41;;;20.41;45.69
56340;BME280;42243;42.644;23.366;2023-05-22T07:57:27;94231.63;;;20.30;45.71
56340;BME280;42243;42.644;23.366;2023-05-22T07:59:54;94289.91;;;21.71;43.85
56340;BME280;42243;42.644;23.366;2023-05-22T08:02:19;94194.78;;;22.71;39.77
56340;BME280;42243;42.644;23.366;2023-05-22T08:04:46;94292.09;;;23.15;40.45
56340;BME280;42243;42.644;23.366;2023-05-22T08:07:13;94191.72;;;22.83;39.75
56340;BME280;42243;42.644;23.366;2023-05-22T08:09:38;94189.56;;;23.47;37.28
56340;BME280;42243;42.644;23.366;2023-05-22T08:12:04;94303.81;;;23.76;38.71
56340;BME280;42243;42.644;23.366;2023-05-22T08:14:30;94272.44;;;22.38;39.66
56340;BME280;42243;42.644;23.366;2023-05-22T08:16:57;94242.09;;;22.93;39.54
56340;BME280;42243;42.644;23.366;2023-05-22T08:19:23;94302.59;;;24.86;36.31
56340;BME280;42243;42.644;23.366;2023-05-22T08:21:49;94229.16;;;23.67;36.84
56340;BME280;42243;42.644;23.366;2023-05-22T08:24:17;94223.78;;;21.40;41.81
56340;BME280;42243;42.644;23.366;2023-05-22T08:26:42;94245.81;;;21.35;40.33
56340;BME280;42243;42.644;23.366;2023-05-22T08:29:07;94305.44;;;21.53;41.49
56340;BME280;42243;42.644;23.366;2023-05-22T08:31:33;94242.28;;;21.55;41.61
56340;BME280;42243;42.644;23.366;2023-05-22T08:34:00;94301.69;;;22.33;40.64
56340;BME280;42243;42.644;23.366;2023-05-22T08:36:28;94213.78;;;23.26;38.08
56340;BME280;42243;42.644;23.366;2023-05-22T08:38:55;94245.13;;;24.52;36.12
56340;BME280;42243;42.644;23.366;2023-05-22T08:41:20;94282.66;;;24.69;36.14
56340;BME280;42243;42.644;23.366;2023-05-22T08:43:46;94218.69;;;24.97;34.42
56340;BME280;42243;42.644;23.366;2023-05-22T08:46:12;94295.91;;;23.90;35.64
56340;BME280;42243;42.644;23.366;2023-05-22T08:48:40;94167.72;;;22.15;36.48
56340;BME280;42243;42.644;23.366;2023-05-22T08:51:07;94231.66;;;22.53;36.03
56340;BME280;42243;42.644;23.366;2023-05-22T08:53:36;94291.59;;;24.46;34.26
56340;BME280;42243;42.644;23.366;2023-05-22T08:56:06;94291.97;;;25.27;34.16
56340;BME280;42243;42.644;23.366;2023-05-22T08:58:35;94218.78;;;24.50;32.91
56340;BME280;42243;42.644;23.366;2023-05-22T09:01:01;94297.44;;;23.96;33.47
56340;BME280;42243;42.644;23.366;2023-05-22T09:03:28;94175.72;;;21.86;37.75
56340;BME280;42243;42.644;23.366;2023-05-22T09:06:00;94300.16;;;24.10;34.31
56340;BME280;42243;42.644;23.366;2023-05-22T09:08:27;94263.72;;;24.98;32.00
56340;BME280;42243;42.644;23.366;2023-05-22T09:10:55;94193.41;;;24.81;30.88
56340;BME280;42243;42.644;23.366;2023-05-22T09:13:25;94292.22;;;26.04;30.36
56340;BME280;42243;42.644;23.366;2023-05-22T09:15:51;94215.81;;;24.93;30.83
56340;BME280;42243;42.644;23.366;2023-05-22T09:18:17;94282.03;;;23.36;33.36
56340;BME280;42243;42.644;23.366;2023-05-22T09:20:43;94287.34;;;22.88;34.63
56340;BME280;42243;42.644;23.366;2023-05-22T09:23:13;94290.22;;;22.67;35.45
56340;BME280;42243;42.644;23.366;2023-05-22T09:25:40;94230.53;;;23.84;32.93
56340;BME280;42243;42.644;23.366;2023-05-22T09:28:07;94169.13;;;24.54;31.60
56340;BME280;42243;42.644;23.366;2023-05-22T09:30:35;94276.25;;;25.90;31.22
56340;BME280;42243;42.644;23.366;2023-05-22T09:33:02;94213.97;;;25.67;30.85
56340;BME280;42243;42.644;23.366;2023-05-22T09:35:30;94283.50;;;25.75;30.78
56340;BME280;42243;42.644;23.366;2023-05-22T09:37:57;94207.69;;;25.12;30.67
56340;BME280;42243;42.644;23.366;2023-05-22T09:40:23;94243.59;;;25.79;30.04
56340;BME280;42243;42.644;23.366;2023-05-22T09:42:48;94277.56;;;25.65;30.74
56340;BME280;42243;42.644;23.366;2023-05-22T09:45:18;94279.69;;;25.40;30.68
56340;BME280;42243;42.644;23.366;2023-05-22T09:47:47;94275.03;;;25.59;30.87
56340;BME280;42243;42.644;23.366;2023-05-22T09:50:13;94281.28;;;25.41;31.12
56340;BME280;42243;42.644;23.366;2023-05-22T09:52:39;94286.63;;;25.13;31.40
56340;BME280;42243;42.644;23.366;2023-05-22T09:55:09;94232.00;;;24.83;32.01
56340;BME280;42243;42.644;23.366;2023-05-22T09:57:44;94282.22;;;25.23;31.66
56340;BME280;42243;42.644;23.366;2023-05-22T10:00:11;94282.47;;;25.07;31.50
56340;BME280;42243;42.644;23.366;2023-05-22T10:02:47;94270.03;;;25.03;31.73
56340;BME280;42243;42.644;23.366;2023-05-22T10:05:14;94293.91;;;24.94;31.73
56340;BME280;42243;42.644;23.366;2023-05-22T10:07:50;94280.69;;;25.44;31.62
56340;BME280;42243;42.644;23.366;2023-05-22T10:10:24;94217.59;;;24.10;32.21
56340;BME280;42243;42.644;23.366;2023-05-22T10:12:51;94281.47;;;24.75;32.59
56340;BME280;42243;42.644;23.366;2023-05-22T10:15:20;94200.72;;;24.89;32.03
56340;BME280;42243;42.644;23.366;2023-05-22T10:17:47;94291.94;;;24.86;33.96
56340;BME280;42243;42.644;23.366;2023-05-22T10:20:14;94151.78;;;21.91;39.84
56340;BME280;42243;42.644;23.366;2023-05-22T10:22:40;94187.69;;;21.49;42.42
56340;BME280;42243;42.644;23.366;2023-05-22T10:25:06;94294.75;;;21.04;44.37
56340;BME280;42243;42.644;23.366;2023-05-22T10:27:32;94295.53;;;21.09;44.80
56340;BME280;42243;42.644;23.366;2023-05-22T10:30:25;94287.41;;;20.70;46.50
56340;BME280;42243;42.644;23.366;2023-05-22T10:33:05;94295.38;;;18.89;52.65
56340;BME280;42243;42.644;23.366;2023-05-22T10:35:51;94321.41;;;17.95;62.91
56340;BME280;42243;42.644;23.366;2023-05-22T10:41:16;94328.41;;;17.84;68.60
56340;BME280;42243;42.644;23.366;2023-05-22T10:43:42;94277.59;;;17.67;69.57
56340;BME280;42243;42.644;23.366;2023-05-22T10:46:09;94313.66;;;17.61;69.90
56340;BME280;42243;42.644;23.366;2023-05-22T10:48:40;94228.75;;;17.27;67.99
56340;BME280;42243;42.644;23.366;2023-05-22T10:51:11;94310.25;;;18.20;70.78
56340;BME280;42243;42.644;23.366;2023-05-22T10:53:37;94260.88;;;18.58;67.36
56340;BME280;42243;42.644;23.366;2023-05-22T10:56:12;94217.91;;;18.68;67.54
56340;BME280;42243;42.644;23.366;2023-05-22T10:58:38;94293.84;;;20.02;66.89
56340;BME280;42243;42.644;23.366;2023-05-22T11:01:15;94298.56;;;20.67;65.32
56340;BME280;42243;42.644;23.366;2023-05-22T11:03:57;94289.38;;;21.19;62.71
56340;BME280;42243;42.644;23.366;2023-05-22T11:14:36;94239.25;;;22.07;58.93
56340;BME280;42243;42.644;23.366;2023-05-22T11:17:01;94276.91;;;22.43;58.94
56340;BME280;42243;42.644;23.366;2023-05-22T11:19:27;94261.44;;;22.16;57.12
56340;BME280;42243;42.644;23.366;2023-05-22T11:21:59;94220.94;;;20.71;56.38
56340;BME280;42243;42.644;23.366;2023-05-22T11:24:25;94181.41;;;20.85;51.71
56340;BME280;42243;42.644;23.366;2023-05-22T11:27:01;94223.09;;;19.26;51.82
56340;BME280;42243;42.644;23.366;2023-05-22T11:29:28;94292.75;;;19.77;52.46
56340;BME280;42243;42.644;23.366;2023-05-22T11:31:53;94318.81;;;19.33;53.99
56340;BME280;42243;42.644;23.366;2023-05-22T11:34:19;94307.19;;;19.39;53.04
56340;BME280;42243;42.644;23.366;2023-05-22T11:36:46;94293.81;;;19.87;52.35
56340;BME280;42243;42.644;23.366;2023-05-22T11:39:15;94334.31;;;20.18;51.57
56340;BME280;42243;42.644;23.366;2023-05-22T11:41:41;94280.88;;;19.85;50.95
56340;BME280;42243;42.644;23.366;2023-05-22T11:44:07;94349.94;;;20.04;52.82
56340;BME280;42243;42.644;23.366;2023-05-22T11:46:33;94292.50;;;19.84;52.87
56340;BME280;42243;42.644;23.366;2023-05-22T11:48:58;94226.22;;;19.07;54.21
56340;BME280;42243;42.644;23.366;2023-05-22T11:51:26;94352.66;;;19.46;55.57
56340;BME280;42243;42.644;23.366;2023-05-22T11:53:51;94283.81;;;18.52;57.85
56340;BME280;42243;42.644;23.366;2023-05-22T11:56:19;94277.72;;;18.52;56.90
56340;BME280;42243;42.644;23.366;2023-05-22T11:58:49;94327.56;;;18.80;54.79
56340;BME280;42243;42.644;23.366;2023-05-22T12:01:14;94227.47;;;17.89;54.56
56340;BME280;42243;42.644;23.366;2023-05-22T12:03:40;94239.06;;;18.30;54.69
56340;BME280;42243;42.644;23.366;2023-05-22T12:06:06;94283.00;;;18.09;58.86
56340;BME280;42243;42.644;23.366;2023-05-22T12:08:32;94361.91;;;18.16;60.16
56340;BME280;42243;42.644;23.366;2023-05-22T12:10:58;94222.69;;;17.86;60.06
56340;BME280;42243;42.644;23.366;2023-05-22T12:13:26;94275.78;;;18.37;61.27
56340;BME280;42243;42.644;23.366;2023-05-22T12:15:53;94342.63;;;18.80;58.27
56340;BME280;42243;42.644;23.366;2023-05-22T12:18:20;94343.31;;;18.70;57.99
56340;BME280;42243;42.644;23.366;2023-05-22T12:20:46;94289.38;;;18.56;58.08
56340;BME280;42243;42.644;23.366;2023-05-22T12:23:24;94270.75;;;18.78;57.06
56340;BME280;42243;42.644;23.366;2023-05-22T12:26:08;94300.53;;;19.21;55.82
56340;BME280;42243;42.644;23.366;2023-05-22T12:28:34;94318.88;;;19.53;55.59
56340;BME280;42243;42.644;23.366;2023-05-22T12:30:59;94259.81;;;19.22;54.25
56340;BME280;42243;42.644;23.366;2023-05-22T12:33:28;94329.53;;;19.79;54.00
56340;BME280;42243;42.644;23.366;2023-05-22T12:35:55;94240.03;;;19.35;53.18
56340;BME280;42243;42.644;23.366;2023-05-22T12:38:29;94247.22;;;19.55;54.12
56340;BME280;42243;42.644;23.366;2023-05-22T12:40:55;94307.31;;;20.47;55.05
56340;BME280;42243;42.644;23.366;2023-05-22T12:43:24;94317.06;;;20.72;54.79
56340;BME280;42243;42.644;23.366;2023-05-22T12:45:50;94261.25;;;20.32;53.96
56340;BME280;42243;42.644;23.366;2023-05-22T12:48:16;94313.06;;;20.90;54.45
56340;BME280;42243;42.644;23.366;2023-05-22T12:50:43;94295.06;;;20.81;52.29
56340;BME280;42243;42.644;23.366;2023-05-22T12:53:09;94305.63;;;20.97;52.68
56340;BME280;42243;42.644;23.366;2023-05-22T12:55:34;94305.84;;;21.06;51.81
56340;BME280;42243;42.644;23.366;2023-05-22T12:58:01;94218.38;;;20.30;53.19
56340;BME280;42243;42.644;23.366;2023-05-22T13:00:26;94301.97;;;20.77;53.26
56340;BME280;42243;42.644;23.366;2023-05-22T13:02:52;94312.25;;;20.99;49.38
56340;BME280;42243;42.644;23.366;2023-05-22T13:05:17;94300.03;;;21.04;51.34
56340;BME280;42243;42.644;23.366;2023-05-22T13:07:43;94302.25;;;21.41;48.94
56340;BME280;42243;42.644;23.366;2023-05-22T13:10:08;94241.47;;;21.05;51.78
56340;BME280;42243;42.644;23.366;2023-05-22T13:12:34;94249.88;;;21.17;53.37
56340;BME280;42243;42.644;23.366;2023-05-22T13:15:00;94218.97;;;20.92;49.92
56340;BME280;42243;42.644;23.366;2023-05-22T13:17:26;94292.84;;;21.69;50.54